UAL661 KSNA-KEWR
Flight info
| Callsign | UAL661 |
|---|---|
| Flight time | N/A |
| Altitude | 37000 |
| Route | STAYY4 CNERY BLH ANGRY KA21O LAKEY KA24Q ONM KA30W IREVE KK39A WAKOP KK51G SPI WWODD RINTE KLYNE Q29 WWSHR DORET J584 SLT FQM3 |
| Aircraft | B737/M-SDE2E3FGHIRWXY/LB1 |
Departure
| Time | 2026-05-06 13:42 |
|---|---|
| Airport | John Wayne Orange County International Airport (KSNA) |
Arrival
| Time | N/A |
|---|---|
| Airport | Newark Liberty International Airport (KEWR) |
| Time | Latitude | Longitude | Altitude | Speed | Heading |
|---|---|---|---|---|---|
| 2026-05-06 13:26 | 33.67933 | -117.86235 | 54 ft | 0 kts | 118° |
| 2026-05-06 13:36 | 33.67941 | -117.86252 | 47 ft | 4 kts | 121° |
| 2026-05-06 13:37 | 33.67954 | -117.86280 | 47 ft | 4 kts | 110° |
| 2026-05-06 13:37 | 33.67957 | -117.86302 | 49 ft | 3 kts | 36° |
| 2026-05-06 13:37 | 33.67955 | -117.86305 | 48 ft | 1 kts | 29° |
| 2026-05-06 13:40 | 33.67966 | -117.86297 | 52 ft | 6 kts | 29° |
| 2026-05-06 13:40 | 33.68024 | -117.86269 | 52 ft | 10 kts | 358° |
| 2026-05-06 13:40 | 33.68071 | -117.86321 | 54 ft | 10 kts | 299° |
| 2026-05-06 13:41 | 33.68105 | -117.86397 | 50 ft | 11 kts | 298° |
| 2026-05-06 13:41 | 33.68141 | -117.86477 | 48 ft | 11 kts | 298° |
| 2026-05-06 13:41 | 33.68110 | -117.86544 | 54 ft | 10 kts | 209° |
| 2026-05-06 13:41 | 33.67860 | -117.86703 | 51 ft | 81 kts | 208° |
| 2026-05-06 13:42 | 33.67125 | -117.87162 | 58 ft | 152 kts | 206° |
| 2026-05-06 13:42 | 33.66101 | -117.87797 | 589 ft | 172 kts | 207° |
| 2026-05-06 13:42 | 33.65033 | -117.88470 | 1500 ft | 175 kts | 205° |
| 2026-05-06 13:42 | 33.63851 | -117.88836 | 2427 ft | 177 kts | 185° |
| 2026-05-06 13:43 | 33.62617 | -117.88899 | 3320 ft | 178 kts | 188° |
| 2026-05-06 13:43 | 33.61497 | -117.89454 | 4117 ft | 174 kts | 212° |
| 2026-05-06 13:43 | 33.60285 | -117.89983 | 4588 ft | 200 kts | 191° |
| 2026-05-06 13:43 | 33.58837 | -117.90077 | 4981 ft | 225 kts | 179° |
| 2026-05-06 13:44 | 33.57182 | -117.89791 | 5197 ft | 255 kts | 164° |
| 2026-05-06 13:44 | 33.55444 | -117.88916 | 5664 ft | 276 kts | 150° |
| 2026-05-06 13:44 | 33.53760 | -117.87823 | 6615 ft | 280 kts | 151° |
| 2026-05-06 13:44 | 33.52029 | -117.86724 | 7556 ft | 282 kts | 149° |
| 2026-05-06 13:45 | 33.50541 | -117.85218 | 8430 ft | 282 kts | 122° |
| 2026-05-06 13:45 | 33.48807 | -117.81027 | 10305 ft | 284 kts | 111° |
| 2026-05-06 13:45 | 33.47984 | -117.78809 | 10619 ft | 308 kts | 109° |
| 2026-05-06 13:46 | 33.47560 | -117.76239 | 10942 ft | 322 kts | 86° |
| 2026-05-06 13:46 | 33.47745 | -117.73539 | 11658 ft | 329 kts | 82° |
| 2026-05-06 13:46 | 33.48007 | -117.70801 | 12461 ft | 332 kts | 77° |
| 2026-05-06 13:46 | 33.48792 | -117.68212 | 13277 ft | 332 kts | 59° |
| 2026-05-06 13:47 | 33.49948 | -117.65787 | 14104 ft | 336 kts | 57° |
| 2026-05-06 13:47 | 33.51137 | -117.63365 | 14857 ft | 339 kts | 57° |
| 2026-05-06 13:47 | 33.52336 | -117.60912 | 15648 ft | 342 kts | 58° |
| 2026-05-06 13:47 | 33.53532 | -117.58434 | 16415 ft | 345 kts | 58° |
| 2026-05-06 13:48 | 33.54729 | -117.55930 | 17177 ft | 348 kts | 58° |
| 2026-05-06 13:48 | 33.55921 | -117.53424 | 17943 ft | 351 kts | 58° |
| 2026-05-06 13:48 | 33.57074 | -117.50822 | 18648 ft | 357 kts | 67° |
| 2026-05-06 13:48 | 33.57562 | -117.47877 | 19287 ft | 365 kts | 85° |
| 2026-05-06 13:49 | 33.57272 | -117.44819 | 19960 ft | 375 kts | 102° |
| 2026-05-06 13:49 | 33.56414 | -117.41841 | 20641 ft | 380 kts | 106° |
| 2026-05-06 13:49 | 33.55448 | -117.38871 | 21224 ft | 385 kts | 107° |
| 2026-05-06 13:49 | 33.54454 | -117.35860 | 21816 ft | 389 kts | 107° |
| 2026-05-06 13:50 | 33.53481 | -117.32861 | 22426 ft | 393 kts | 106° |
| 2026-05-06 13:50 | 33.52505 | -117.29785 | 23046 ft | 396 kts | 106° |
| 2026-05-06 13:50 | 33.51531 | -117.26685 | 23640 ft | 399 kts | 105° |
| 2026-05-06 13:50 | 33.50600 | -117.23533 | 24135 ft | 400 kts | 99° |
| 2026-05-06 13:51 | 33.50297 | -117.20260 | 24604 ft | 394 kts | 86° |
| 2026-05-06 13:51 | 33.50262 | -117.16966 | 25148 ft | 396 kts | 86° |
| 2026-05-06 13:51 | 33.50239 | -117.13658 | 25672 ft | 398 kts | 86° |
| 2026-05-06 13:51 | 33.50205 | -117.10329 | 26146 ft | 401 kts | 86° |
| 2026-05-06 13:52 | 33.50154 | -117.06966 | 26606 ft | 404 kts | 86° |
| 2026-05-06 13:52 | 33.50093 | -117.03628 | 27082 ft | 407 kts | 87° |
| 2026-05-06 13:52 | 33.50023 | -117.00237 | 27539 ft | 409 kts | 87° |
| 2026-05-06 13:52 | 33.49951 | -116.96802 | 27979 ft | 412 kts | 87° |
| 2026-05-06 13:53 | 33.49876 | -116.93362 | 28403 ft | 415 kts | 87° |
| 2026-05-06 13:53 | 33.49801 | -116.89885 | 28867 ft | 417 kts | 86° |
| 2026-05-06 13:53 | 33.49746 | -116.86406 | 29296 ft | 419 kts | 86° |
| 2026-05-06 13:53 | 33.49709 | -116.82909 | 29721 ft | 421 kts | 86° |
| 2026-05-06 13:54 | 33.49677 | -116.79395 | 30109 ft | 423 kts | 86° |
| 2026-05-06 13:54 | 33.49642 | -116.75857 | 30466 ft | 425 kts | 86° |
| 2026-05-06 13:54 | 33.49605 | -116.72346 | 30752 ft | 428 kts | 86° |
| 2026-05-06 13:54 | 33.49564 | -116.68779 | 31107 ft | 428 kts | 86° |
| 2026-05-06 13:55 | 33.49520 | -116.65216 | 31558 ft | 427 kts | 86° |
| 2026-05-06 13:55 | 33.49474 | -116.61669 | 32034 ft | 424 kts | 86° |
| 2026-05-06 13:55 | 33.49428 | -116.58139 | 32427 ft | 424 kts | 86° |
| 2026-05-06 13:55 | 33.49382 | -116.54589 | 32705 ft | 426 kts | 87° |
| 2026-05-06 13:56 | 33.49336 | -116.51028 | 32988 ft | 428 kts | 87° |
| 2026-05-06 13:56 | 33.49287 | -116.47471 | 33415 ft | 425 kts | 87° |
| 2026-05-06 13:56 | 33.49237 | -116.43978 | 33814 ft | 424 kts | 87° |
| 2026-05-06 13:56 | 33.49187 | -116.40439 | 34107 ft | 424 kts | 87° |
| 2026-05-06 13:57 | 33.49136 | -116.36908 | 34316 ft | 425 kts | 87° |
| 2026-05-06 13:57 | 33.49082 | -116.33350 | 34555 ft | 426 kts | 87° |
| 2026-05-06 13:57 | 33.49030 | -116.29794 | 34788 ft | 428 kts | 87° |
| 2026-05-06 13:57 | 33.48976 | -116.26220 | 35023 ft | 429 kts | 88° |
| 2026-05-06 13:58 | 33.48921 | -116.22643 | 35199 ft | 431 kts | 88° |
| 2026-05-06 13:58 | 33.48865 | -116.19094 | 35410 ft | 432 kts | 88° |
| 2026-05-06 13:58 | 33.48807 | -116.15497 | 35646 ft | 432 kts | 88° |
| 2026-05-06 13:58 | 33.48748 | -116.11893 | 35842 ft | 433 kts | 88° |
| 2026-05-06 13:59 | 33.48688 | -116.08269 | 36036 ft | 434 kts | 88° |
| 2026-05-06 13:59 | 33.48645 | -116.04645 | 36254 ft | 434 kts | 85° |
| 2026-05-06 13:59 | 33.49141 | -116.01099 | 36373 ft | 431 kts | 69° |
| 2026-05-06 13:59 | 33.50139 | -115.97719 | 36589 ft | 430 kts | 68° |
| 2026-05-06 14:00 | 33.50822 | -115.95495 | 36697 ft | 431 kts | 68° |
| 2026-05-06 14:00 | 33.52202 | -115.91000 | 36805 ft | 436 kts | 68° |
| 2026-05-06 14:00 | 33.53238 | -115.87570 | 36926 ft | 438 kts | 69° |
| 2026-05-06 14:00 | 33.53931 | -115.85239 | 37033 ft | 440 kts | 69° |
| 2026-05-06 14:01 | 33.55958 | -115.78328 | 37027 ft | 441 kts | 69° |
| 2026-05-06 14:01 | 33.57968 | -115.71409 | 37014 ft | 436 kts | 69° |
| 2026-05-06 14:02 | 33.59949 | -115.64587 | 37020 ft | 434 kts | 69° |
| 2026-05-06 14:02 | 33.61776 | -115.57689 | 37004 ft | 435 kts | 82° |
| 2026-05-06 14:03 | 33.61731 | -115.50398 | 37025 ft | 443 kts | 91° |
| 2026-05-06 14:03 | 33.61469 | -115.42946 | 37025 ft | 448 kts | 91° |
| 2026-05-06 14:04 | 33.61246 | -115.35507 | 37024 ft | 448 kts | 90° |
| 2026-05-06 14:04 | 33.61049 | -115.28025 | 37015 ft | 448 kts | 91° |
| 2026-05-06 14:05 | 33.60855 | -115.20550 | 37021 ft | 448 kts | 91° |
| 2026-05-06 14:05 | 33.60656 | -115.13074 | 37023 ft | 448 kts | 91° |
| 2026-05-06 14:06 | 33.60453 | -115.05651 | 37031 ft | 447 kts | 91° |
| 2026-05-06 14:06 | 33.60244 | -114.98176 | 37020 ft | 448 kts | 92° |
| 2026-05-06 14:07 | 33.60030 | -114.90692 | 37052 ft | 449 kts | 92° |
| 2026-05-06 14:07 | 33.59812 | -114.83209 | 37064 ft | 452 kts | 92° |
| 2026-05-06 14:08 | 33.59586 | -114.75645 | 37062 ft | 455 kts | 92° |
| 2026-05-06 14:08 | 33.59115 | -114.68045 | 37062 ft | 457 kts | 95° |
| 2026-05-06 14:09 | 33.58485 | -114.60438 | 37056 ft | 459 kts | 96° |
| 2026-05-06 14:09 | 33.57864 | -114.52793 | 37045 ft | 460 kts | 95° |
| 2026-05-06 14:10 | 33.57273 | -114.45212 | 37037 ft | 459 kts | 95° |
| 2026-05-06 14:10 | 33.56689 | -114.37601 | 37030 ft | 458 kts | 95° |
| 2026-05-06 14:11 | 33.56104 | -114.30009 | 37014 ft | 457 kts | 95° |
| 2026-05-06 14:11 | 33.55515 | -114.22439 | 37021 ft | 455 kts | 95° |
| 2026-05-06 14:12 | 33.54938 | -114.15093 | 37020 ft | 454 kts | 95° |
| 2026-05-06 14:12 | 33.54341 | -114.07556 | 37018 ft | 454 kts | 96° |
| 2026-05-06 14:13 | 33.53739 | -114.00017 | 37011 ft | 454 kts | 96° |
| 2026-05-06 14:13 | 33.53141 | -113.92575 | 37017 ft | 456 kts | 96° |
| 2026-05-06 14:14 | 33.52528 | -113.85022 | 37003 ft | 458 kts | 96° |
| 2026-05-06 14:14 | 33.51907 | -113.77407 | 36992 ft | 460 kts | 96° |
| 2026-05-06 14:15 | 33.51277 | -113.69749 | 36972 ft | 462 kts | 96° |
| 2026-05-06 14:15 | 33.50640 | -113.62068 | 36977 ft | 464 kts | 96° |
| 2026-05-06 14:16 | 33.49996 | -113.54356 | 36976 ft | 465 kts | 96° |
| 2026-05-06 14:16 | 33.49345 | -113.46629 | 36981 ft | 466 kts | 97° |
| 2026-05-06 14:17 | 33.48693 | -113.38933 | 37000 ft | 466 kts | 97° |
| 2026-05-06 14:17 | 33.48033 | -113.31216 | 37014 ft | 466 kts | 97° |
| 2026-05-06 14:18 | 33.47368 | -113.23474 | 37004 ft | 467 kts | 98° |
| 2026-05-06 14:18 | 33.46693 | -113.15704 | 37021 ft | 469 kts | 98° |
| 2026-05-06 14:19 | 33.46013 | -113.07919 | 37014 ft | 472 kts | 98° |
| 2026-05-06 14:19 | 33.45323 | -113.00076 | 37041 ft | 475 kts | 98° |
| 2026-05-06 14:20 | 33.44625 | -112.92211 | 37054 ft | 478 kts | 98° |
| 2026-05-06 14:20 | 33.43916 | -112.84264 | 37060 ft | 481 kts | 98° |
| 2026-05-06 14:21 | 33.43200 | -112.76294 | 37064 ft | 482 kts | 99° |
| 2026-05-06 14:21 | 33.42475 | -112.68291 | 37072 ft | 483 kts | 99° |
| 2026-05-06 14:22 | 33.41746 | -112.60288 | 37076 ft | 483 kts | 99° |
| 2026-05-06 14:22 | 33.41016 | -112.52349 | 37059 ft | 482 kts | 99° |
| 2026-05-06 14:23 | 33.40279 | -112.44375 | 37044 ft | 481 kts | 99° |
| 2026-05-06 14:23 | 33.39538 | -112.36420 | 37055 ft | 481 kts | 100° |
| 2026-05-06 14:24 | 33.38794 | -112.28447 | 37060 ft | 483 kts | 98° |
| 2026-05-06 14:24 | 33.38821 | -112.24400 | 37039 ft | 489 kts | 84° |
| 2026-05-06 14:24 | 33.39545 | -112.20467 | 37052 ft | 492 kts | 72° |
| 2026-05-06 14:25 | 33.40922 | -112.16708 | 37022 ft | 493 kts | 58° |
| 2026-05-06 14:25 | 33.42778 | -112.13260 | 37054 ft | 493 kts | 55° |
| 2026-05-06 14:25 | 33.46614 | -112.06410 | 37043 ft | 497 kts | 56° |
| 2026-05-06 14:26 | 33.49866 | -111.99081 | 37042 ft | 499 kts | 71° |
| 2026-05-06 14:26 | 33.51419 | -111.91018 | 37079 ft | 496 kts | 83° |
| 2026-05-06 14:27 | 33.52447 | -111.82889 | 37046 ft | 495 kts | 83° |
| 2026-05-06 14:27 | 33.53548 | -111.74745 | 37042 ft | 495 kts | 82° |
| 2026-05-06 14:28 | 33.54690 | -111.66626 | 37054 ft | 494 kts | 82° |
| 2026-05-06 14:28 | 33.56514 | -111.58679 | 37053 ft | 494 kts | 72° |
| 2026-05-06 14:29 | 33.58784 | -111.50896 | 37004 ft | 494 kts | 71° |
| 2026-05-06 14:29 | 33.61043 | -111.43119 | 36999 ft | 494 kts | 72° |
| 2026-05-06 14:30 | 33.63249 | -111.35297 | 37007 ft | 494 kts | 72° |
| 2026-05-06 14:30 | 33.65425 | -111.27462 | 37012 ft | 495 kts | 72° |
| 2026-05-06 14:31 | 33.67585 | -111.19656 | 37017 ft | 495 kts | 72° |
| 2026-05-06 14:31 | 33.69753 | -111.11802 | 37013 ft | 496 kts | 72° |
| 2026-05-06 14:32 | 33.71926 | -111.03921 | 37024 ft | 497 kts | 72° |
| 2026-05-06 14:32 | 33.74097 | -110.96021 | 37022 ft | 499 kts | 72° |
| 2026-05-06 14:33 | 33.76270 | -110.88092 | 37013 ft | 500 kts | 72° |
| 2026-05-06 14:33 | 33.78439 | -110.80147 | 37027 ft | 500 kts | 73° |
| 2026-05-06 14:34 | 33.80616 | -110.72165 | 37022 ft | 502 kts | 73° |
| 2026-05-06 14:34 | 33.82774 | -110.64227 | 37029 ft | 503 kts | 73° |
| 2026-05-06 14:35 | 33.84956 | -110.56216 | 37017 ft | 504 kts | 71° |
| 2026-05-06 14:35 | 33.87160 | -110.48219 | 37029 ft | 504 kts | 73° |
| 2026-05-06 14:36 | 33.89292 | -110.40156 | 37030 ft | 506 kts | 73° |
| 2026-05-06 14:36 | 33.91444 | -110.32081 | 37030 ft | 507 kts | 73° |
| 2026-05-06 14:37 | 33.93601 | -110.24027 | 37033 ft | 508 kts | 73° |
| 2026-05-06 14:37 | 33.95770 | -110.15913 | 37044 ft | 509 kts | 73° |
| 2026-05-06 14:38 | 33.97938 | -110.07771 | 37058 ft | 511 kts | 73° |
| 2026-05-06 14:38 | 34.00047 | -109.99611 | 37077 ft | 510 kts | 78° |
| 2026-05-06 14:39 | 34.01208 | -109.91206 | 37074 ft | 508 kts | 85° |
| 2026-05-06 14:39 | 34.02124 | -109.82766 | 37056 ft | 508 kts | 85° |
| 2026-05-06 14:40 | 34.02899 | -109.75736 | 37021 ft | 509 kts | 85° |
| 2026-05-06 14:40 | 34.03872 | -109.67269 | 37025 ft | 510 kts | 85° |
| 2026-05-06 14:41 | 34.04865 | -109.58788 | 37080 ft | 511 kts | 85° |
| 2026-05-06 14:41 | 34.05857 | -109.50288 | 37110 ft | 511 kts | 85° |
| 2026-05-06 14:42 | 34.06832 | -109.41829 | 37138 ft | 512 kts | 85° |
| 2026-05-06 14:42 | 34.07811 | -109.33304 | 37162 ft | 513 kts | 85° |
| 2026-05-06 14:43 | 34.08786 | -109.24765 | 37178 ft | 514 kts | 85° |
| 2026-05-06 14:43 | 34.09750 | -109.16257 | 37153 ft | 515 kts | 85° |
| 2026-05-06 14:44 | 34.10715 | -109.07674 | 37090 ft | 517 kts | 85° |
| 2026-05-06 14:45 | 34.12160 | -108.94737 | 37030 ft | 519 kts | 85° |
| 2026-05-06 14:45 | 34.13118 | -108.86077 | 36992 ft | 521 kts | 85° |
| 2026-05-06 14:46 | 34.14074 | -108.77399 | 36982 ft | 521 kts | 86° |
| 2026-05-06 14:46 | 34.15017 | -108.68768 | 36993 ft | 522 kts | 86° |
| 2026-05-06 14:47 | 34.15960 | -108.60079 | 37000 ft | 522 kts | 86° |
| 2026-05-06 14:47 | 34.16899 | -108.51367 | 37007 ft | 523 kts | 86° |
| 2026-05-06 14:48 | 34.17833 | -108.42648 | 36999 ft | 524 kts | 86° |
| 2026-05-06 14:48 | 34.18763 | -108.33912 | 37005 ft | 523 kts | 86° |
| 2026-05-06 14:49 | 34.19686 | -108.25172 | 36999 ft | 524 kts | 86° |
| 2026-05-06 14:49 | 34.20604 | -108.16418 | 36995 ft | 525 kts | 87° |
| 2026-05-06 14:50 | 34.21516 | -108.07661 | 37001 ft | 525 kts | 87° |
| 2026-05-06 14:50 | 34.22417 | -107.98951 | 37000 ft | 526 kts | 87° |
| 2026-05-06 14:51 | 34.23318 | -107.90176 | 37001 ft | 526 kts | 87° |
| 2026-05-06 14:51 | 34.24217 | -107.81377 | 36987 ft | 527 kts | 87° |
| 2026-05-06 14:52 | 34.25105 | -107.72600 | 36974 ft | 527 kts | 87° |
| 2026-05-06 14:52 | 34.25983 | -107.63862 | 36980 ft | 527 kts | 87° |
| 2026-05-06 14:53 | 34.26860 | -107.55068 | 36979 ft | 527 kts | 87° |
| 2026-05-06 14:53 | 34.27734 | -107.46240 | 36967 ft | 527 kts | 87° |
| 2026-05-06 14:54 | 34.28600 | -107.37427 | 36959 ft | 528 kts | 88° |
| 2026-05-06 14:54 | 34.29457 | -107.28649 | 36958 ft | 529 kts | 88° |
| 2026-05-06 14:55 | 34.30313 | -107.19800 | 36959 ft | 529 kts | 88° |
| 2026-05-06 14:55 | 34.31164 | -107.10942 | 36970 ft | 530 kts | 88° |
| 2026-05-06 14:56 | 34.32012 | -107.02058 | 36961 ft | 531 kts | 88° |
| 2026-05-06 14:56 | 34.32847 | -106.93225 | 36983 ft | 532 kts | 88° |
| 2026-05-06 14:57 | 34.33687 | -106.84302 | 36950 ft | 534 kts | 88° |
| 2026-05-06 14:57 | 34.35328 | -106.75468 | 36970 ft | 541 kts | 76° |
| 2026-05-06 14:58 | 34.37556 | -106.66753 | 36936 ft | 543 kts | 75° |
| 2026-05-06 14:58 | 34.39801 | -106.58010 | 36967 ft | 544 kts | 75° |
| 2026-05-06 14:59 | 34.41986 | -106.49238 | 36984 ft | 544 kts | 76° |
| 2026-05-06 14:59 | 34.44133 | -106.40426 | 36977 ft | 545 kts | 76° |
| 2026-05-06 15:00 | 34.46263 | -106.31638 | 36945 ft | 546 kts | 76° |
| 2026-05-06 15:00 | 34.48401 | -106.22812 | 36964 ft | 546 kts | 76° |
| 2026-05-06 15:01 | 34.50541 | -106.13959 | 36975 ft | 547 kts | 76° |
| 2026-05-06 15:01 | 34.52676 | -106.05098 | 36966 ft | 547 kts | 76° |
| 2026-05-06 15:02 | 34.54793 | -105.96283 | 36950 ft | 548 kts | 77° |
| 2026-05-06 15:02 | 34.56919 | -105.87398 | 36976 ft | 548 kts | 77° |
| 2026-05-06 15:03 | 34.59040 | -105.78494 | 36963 ft | 549 kts | 77° |
| 2026-05-06 15:03 | 34.61158 | -105.69576 | 36961 ft | 549 kts | 77° |
| 2026-05-06 15:04 | 34.63258 | -105.60705 | 36932 ft | 550 kts | 77° |
| 2026-05-06 15:04 | 34.65364 | -105.51774 | 36955 ft | 550 kts | 77° |
| 2026-05-06 15:05 | 34.67469 | -105.42818 | 36941 ft | 551 kts | 77° |
| 2026-05-06 15:05 | 34.69569 | -105.33846 | 36921 ft | 552 kts | 78° |
| 2026-05-06 15:06 | 34.71653 | -105.24913 | 36914 ft | 553 kts | 78° |
| 2026-05-06 15:06 | 34.73745 | -105.15910 | 36893 ft | 554 kts | 78° |
| 2026-05-06 15:07 | 34.75837 | -105.06878 | 36890 ft | 555 kts | 78° |
| 2026-05-06 15:07 | 34.77928 | -104.97813 | 36911 ft | 556 kts | 78° |
| 2026-05-06 15:08 | 34.80011 | -104.88753 | 36937 ft | 556 kts | 78° |
| 2026-05-06 15:08 | 34.82091 | -104.79671 | 37003 ft | 557 kts | 78° |
| 2026-05-06 15:09 | 34.84155 | -104.70623 | 37047 ft | 558 kts | 78° |
| 2026-05-06 15:09 | 34.86224 | -104.61517 | 37063 ft | 559 kts | 78° |
| 2026-05-06 15:10 | 34.88281 | -104.52431 | 37059 ft | 560 kts | 78° |
| 2026-05-06 15:10 | 34.90347 | -104.43275 | 37006 ft | 560 kts | 78° |
| 2026-05-06 15:11 | 34.92400 | -104.34141 | 36948 ft | 559 kts | 78° |
| 2026-05-06 15:11 | 34.94446 | -104.25001 | 36902 ft | 558 kts | 78° |
| 2026-05-06 15:12 | 34.96480 | -104.15877 | 36895 ft | 556 kts | 79° |
| 2026-05-06 15:12 | 34.98502 | -104.06773 | 36903 ft | 555 kts | 79° |
| 2026-05-06 15:13 | 35.00705 | -103.97822 | 36914 ft | 556 kts | 69° |
| 2026-05-06 15:13 | 35.03956 | -103.89231 | 36936 ft | 557 kts | 65° |
| 2026-05-06 15:14 | 35.07330 | -103.80719 | 36940 ft | 559 kts | 65° |
| 2026-05-06 15:14 | 35.10673 | -103.72073 | 36983 ft | 566 kts | 66° |
| 2026-05-06 15:15 | 35.13971 | -103.63373 | 36994 ft | 568 kts | 66° |
| 2026-05-06 15:15 | 35.17284 | -103.54591 | 37084 ft | 569 kts | 66° |
| 2026-05-06 15:16 | 35.20602 | -103.45794 | 37061 ft | 569 kts | 66° |
| 2026-05-06 15:16 | 35.23915 | -103.36991 | 37051 ft | 569 kts | 66° |
| 2026-05-06 15:17 | 35.27207 | -103.28223 | 37029 ft | 569 kts | 66° |
| 2026-05-06 15:17 | 35.30545 | -103.19443 | 37015 ft | 568 kts | 65° |
| 2026-05-06 15:18 | 35.33980 | -103.10730 | 37001 ft | 568 kts | 65° |
| 2026-05-06 15:18 | 35.37421 | -103.02025 | 37023 ft | 567 kts | 65° |
| 2026-05-06 15:19 | 35.40834 | -102.93314 | 37021 ft | 567 kts | 65° |
| 2026-05-06 15:19 | 35.44227 | -102.84592 | 37024 ft | 567 kts | 65° |
| 2026-05-06 15:20 | 35.47593 | -102.75909 | 37017 ft | 567 kts | 65° |
| 2026-05-06 15:20 | 35.50978 | -102.67158 | 37022 ft | 567 kts | 65° |
| 2026-05-06 15:21 | 35.54360 | -102.58396 | 37033 ft | 568 kts | 65° |
| 2026-05-06 15:21 | 35.57167 | -102.51106 | 37035 ft | 568 kts | 65° |
| 2026-05-06 15:22 | 35.60555 | -102.42285 | 37062 ft | 569 kts | 65° |
| 2026-05-06 15:22 | 35.63935 | -102.33456 | 37036 ft | 571 kts | 65° |
| 2026-05-06 15:23 | 35.67295 | -102.24661 | 37038 ft | 572 kts | 65° |
| 2026-05-06 15:23 | 35.70671 | -102.15798 | 37089 ft | 572 kts | 65° |
| 2026-05-06 15:24 | 35.74056 | -102.06887 | 37110 ft | 573 kts | 65° |
| 2026-05-06 15:24 | 35.77422 | -101.97998 | 37111 ft | 573 kts | 65° |
| 2026-05-06 15:25 | 35.80784 | -101.89099 | 37118 ft | 573 kts | 65° |
| 2026-05-06 15:25 | 35.84120 | -101.80241 | 37102 ft | 573 kts | 65° |
| 2026-05-06 15:26 | 35.87477 | -101.71304 | 37068 ft | 574 kts | 65° |
| 2026-05-06 15:26 | 35.90820 | -101.62379 | 37065 ft | 573 kts | 65° |
| 2026-05-06 15:27 | 35.94162 | -101.53431 | 37088 ft | 573 kts | 65° |
| 2026-05-06 15:27 | 35.97499 | -101.44469 | 37096 ft | 575 kts | 65° |
| 2026-05-06 15:28 | 36.00830 | -101.35501 | 37102 ft | 574 kts | 65° |
| 2026-05-06 15:28 | 36.04131 | -101.26587 | 37083 ft | 574 kts | 65° |
| 2026-05-06 15:29 | 36.07448 | -101.17604 | 37105 ft | 573 kts | 65° |
| 2026-05-06 15:29 | 36.10732 | -101.08686 | 37104 ft | 572 kts | 65° |
| 2026-05-06 15:30 | 36.14026 | -100.99713 | 37110 ft | 572 kts | 66° |
| 2026-05-06 15:30 | 36.17314 | -100.90732 | 37121 ft | 572 kts | 66° |
| 2026-05-06 15:31 | 36.20588 | -100.81765 | 37125 ft | 571 kts | 66° |
| 2026-05-06 15:31 | 36.23853 | -100.72793 | 37125 ft | 571 kts | 66° |
| 2026-05-06 15:32 | 36.28745 | -100.59308 | 37170 ft | 572 kts | 66° |
| 2026-05-06 15:32 | 36.31987 | -100.50334 | 37127 ft | 573 kts | 66° |
| 2026-05-06 15:33 | 36.35240 | -100.41306 | 37133 ft | 573 kts | 66° |
| 2026-05-06 15:33 | 36.38485 | -100.32276 | 37111 ft | 573 kts | 66° |
| 2026-05-06 15:34 | 36.41725 | -100.23231 | 37131 ft | 573 kts | 66° |
| 2026-05-06 15:34 | 36.44958 | -100.14177 | 37117 ft | 573 kts | 66° |
| 2026-05-06 15:35 | 36.48182 | -100.05122 | 37136 ft | 572 kts | 66° |
| 2026-05-06 15:35 | 36.51348 | -99.96054 | 37130 ft | 572 kts | 69° |
| 2026-05-06 15:36 | 36.54174 | -99.86854 | 37140 ft | 572 kts | 71° |
| 2026-05-06 15:36 | 36.56905 | -99.77560 | 37132 ft | 572 kts | 71° |
| 2026-05-06 15:37 | 36.59676 | -99.68273 | 37145 ft | 572 kts | 71° |
| 2026-05-06 15:37 | 36.62486 | -99.58988 | 37144 ft | 574 kts | 70° |
| 2026-05-06 15:38 | 36.65309 | -99.49673 | 37143 ft | 574 kts | 70° |
| 2026-05-06 15:38 | 36.68122 | -99.40347 | 37138 ft | 574 kts | 70° |
| 2026-05-06 15:39 | 36.70917 | -99.31029 | 37139 ft | 574 kts | 71° |
| 2026-05-06 15:39 | 36.73686 | -99.21768 | 37144 ft | 574 kts | 71° |
| 2026-05-06 15:40 | 36.76469 | -99.12427 | 37143 ft | 574 kts | 71° |
| 2026-05-06 15:40 | 36.79243 | -99.03088 | 37137 ft | 574 kts | 71° |
| 2026-05-06 15:41 | 36.82008 | -98.93747 | 37138 ft | 574 kts | 71° |
| 2026-05-06 15:41 | 36.84768 | -98.84392 | 37143 ft | 574 kts | 71° |
| 2026-05-06 15:42 | 36.87523 | -98.75023 | 37146 ft | 574 kts | 71° |
| 2026-05-06 15:42 | 36.90255 | -98.65701 | 37143 ft | 574 kts | 71° |
| 2026-05-06 15:43 | 36.92993 | -98.56324 | 37200 ft | 574 kts | 71° |
| 2026-05-06 15:43 | 36.95730 | -98.46921 | 37140 ft | 575 kts | 71° |
| 2026-05-06 15:44 | 36.98456 | -98.37523 | 37152 ft | 575 kts | 71° |
| 2026-05-06 15:44 | 37.01178 | -98.28106 | 37153 ft | 575 kts | 71° |
| 2026-05-06 15:45 | 37.03888 | -98.18699 | 37166 ft | 575 kts | 71° |
| 2026-05-06 15:45 | 37.06578 | -98.09326 | 37170 ft | 575 kts | 71° |
| 2026-05-06 15:46 | 37.09276 | -97.99895 | 37165 ft | 575 kts | 71° |
| 2026-05-06 15:46 | 37.11969 | -97.90448 | 37171 ft | 574 kts | 71° |
| 2026-05-06 15:47 | 37.14643 | -97.81035 | 37143 ft | 574 kts | 71° |
| 2026-05-06 15:47 | 37.17318 | -97.71589 | 37143 ft | 574 kts | 71° |
| 2026-05-06 15:48 | 37.19967 | -97.62197 | 37137 ft | 574 kts | 71° |
| 2026-05-06 15:48 | 37.22628 | -97.52731 | 37138 ft | 575 kts | 71° |
| 2026-05-06 15:49 | 37.25283 | -97.43251 | 37171 ft | 576 kts | 71° |
| 2026-05-06 15:49 | 37.27920 | -97.33805 | 37172 ft | 576 kts | 71° |
| 2026-05-06 15:50 | 37.30560 | -97.24311 | 37167 ft | 576 kts | 72° |
| 2026-05-06 15:50 | 37.33194 | -97.14807 | 37158 ft | 576 kts | 72° |
| 2026-05-06 15:51 | 37.36157 | -97.05461 | 37157 ft | 575 kts | 63° |
| 2026-05-06 15:51 | 37.39716 | -96.96464 | 37149 ft | 574 kts | 61° |
| 2026-05-06 15:52 | 37.43343 | -96.87515 | 37154 ft | 574 kts | 62° |
| 2026-05-06 15:52 | 37.46885 | -96.78539 | 37149 ft | 574 kts | 62° |
| 2026-05-06 15:53 | 37.50382 | -96.69497 | 37151 ft | 574 kts | 63° |
| 2026-05-06 15:53 | 37.53859 | -96.60448 | 37237 ft | 574 kts | 63° |
| 2026-05-06 15:54 | 37.57349 | -96.51357 | 37153 ft | 576 kts | 63° |
| 2026-05-06 15:54 | 37.60811 | -96.42328 | 37135 ft | 576 kts | 63° |
| 2026-05-06 15:55 | 37.64292 | -96.33227 | 37148 ft | 575 kts | 63° |
| 2026-05-06 15:55 | 37.67764 | -96.24121 | 37150 ft | 575 kts | 63° |
| 2026-05-06 15:56 | 37.71224 | -96.15016 | 37148 ft | 575 kts | 63° |
| 2026-05-06 15:56 | 37.74683 | -96.05888 | 37146 ft | 575 kts | 63° |
| 2026-05-06 15:57 | 37.78137 | -95.96747 | 37150 ft | 576 kts | 63° |
| 2026-05-06 15:57 | 37.81582 | -95.87601 | 37192 ft | 576 kts | 63° |
| 2026-05-06 15:58 | 37.85008 | -95.78481 | 37144 ft | 578 kts | 63° |
| 2026-05-06 15:58 | 37.88453 | -95.69280 | 37143 ft | 578 kts | 63° |
| 2026-05-06 15:59 | 37.91886 | -95.60084 | 37167 ft | 578 kts | 63° |
| 2026-05-06 15:59 | 37.95313 | -95.50877 | 37146 ft | 578 kts | 63° |
| 2026-05-06 16:00 | 37.98736 | -95.41653 | 37162 ft | 578 kts | 63° |
| 2026-05-06 16:00 | 38.01574 | -95.33983 | 37148 ft | 578 kts | 63° |
| 2026-05-06 16:01 | 38.04983 | -95.24744 | 37142 ft | 577 kts | 63° |
| 2026-05-06 16:01 | 38.08381 | -95.15509 | 37198 ft | 577 kts | 63° |
| 2026-05-06 16:02 | 38.11778 | -95.06247 | 37142 ft | 578 kts | 63° |
| 2026-05-06 16:02 | 38.15149 | -94.97027 | 37147 ft | 578 kts | 63° |
| 2026-05-06 16:03 | 38.18529 | -94.87752 | 37136 ft | 577 kts | 63° |